sensor_id;sensor_type;location;lat;lon;timestamp;P1;durP1;ratioP1;P2;durP2;ratioP2
75456;SDS011;64036;48.266;14.192;2023-05-10T00:00:34;4.80;;;3.00;;
75456;SDS011;64036;48.266;14.192;2023-05-10T00:03:00;5.10;;;3.50;;
75456;SDS011;64036;48.266;14.192;2023-05-10T00:05:28;5.10;;;3.20;;
75456;SDS011;64036;48.266;14.192;2023-05-10T00:07:54;4.60;;;3.00;;
75456;SDS011;64036;48.266;14.192;2023-05-10T00:10:22;5.00;;;3.20;;
75456;SDS011;64036;48.266;14.192;2023-05-10T00:12:48;5.50;;;3.60;;
75456;SDS011;64036;48.266;14.192;2023-05-10T00:15:17;7.20;;;3.40;;
75456;SDS011;64036;48.266;14.192;2023-05-10T00:17:42;6.60;;;3.10;;
75456;SDS011;64036;48.266;14.192;2023-05-10T00:20:14;4.90;;;3.00;;
75456;SDS011;64036;48.266;14.192;2023-05-10T00:22:40;5.90;;;3.60;;
75456;SDS011;64036;48.266;14.192;2023-05-10T00:25:06;6.20;;;3.30;;
75456;SDS011;64036;48.266;14.192;2023-05-10T00:27:33;6.80;;;3.60;;
75456;SDS011;64036;48.266;14.192;2023-05-10T00:29:58;5.00;;;3.40;;
75456;SDS011;64036;48.266;14.192;2023-05-10T00:32:24;5.20;;;3.20;;
75456;SDS011;64036;48.266;14.192;2023-05-10T00:34:50;5.50;;;3.50;;
75456;SDS011;64036;48.266;14.192;2023-05-10T00:37:16;6.60;;;3.40;;
75456;SDS011;64036;48.266;14.192;2023-05-10T00:39:41;5.50;;;3.10;;
75456;SDS011;64036;48.266;14.192;2023-05-10T00:42:07;5.30;;;3.00;;
75456;SDS011;64036;48.266;14.192;2023-05-10T00:44:33;6.60;;;3.20;;
75456;SDS011;64036;48.266;14.192;2023-05-10T00:46:59;5.30;;;3.30;;
75456;SDS011;64036;48.266;14.192;2023-05-10T00:49:25;5.90;;;3.10;;
75456;SDS011;64036;48.266;14.192;2023-05-10T00:51:51;5.50;;;3.00;;
75456;SDS011;64036;48.266;14.192;2023-05-10T00:54:17;7.20;;;3.80;;
75456;SDS011;64036;48.266;14.192;2023-05-10T00:56:43;4.50;;;2.70;;
75456;SDS011;64036;48.266;14.192;2023-05-10T00:59:15;5.80;;;2.90;;
75456;SDS011;64036;48.266;14.192;2023-05-10T01:01:42;5.50;;;3.00;;
75456;SDS011;64036;48.266;14.192;2023-05-10T01:04:12;5.50;;;3.00;;
75456;SDS011;64036;48.266;14.192;2023-05-10T01:06:39;5.10;;;2.90;;
75456;SDS011;64036;48.266;14.192;2023-05-10T01:09:06;5.20;;;3.30;;
75456;SDS011;64036;48.266;14.192;2023-05-10T01:11:36;5.10;;;3.40;;
75456;SDS011;64036;48.266;14.192;2023-05-10T01:14:03;4.80;;;3.10;;
75456;SDS011;64036;48.266;14.192;2023-05-10T01:16:37;6.60;;;3.30;;
75456;SDS011;64036;48.266;14.192;2023-05-10T01:19:19;5.20;;;3.40;;
75456;SDS011;64036;48.266;14.192;2023-05-10T01:34:43;4.70;;;2.90;;
75456;SDS011;64036;48.266;14.192;2023-05-10T01:37:16;5.80;;;3.20;;
75456;SDS011;64036;48.266;14.192;2023-05-10T01:39:50;5.40;;;3.00;;
75456;SDS011;64036;48.266;14.192;2023-05-10T01:42:51;6.10;;;3.50;;
75456;SDS011;64036;48.266;14.192;2023-05-10T01:46:02;5.90;;;3.70;;
75456;SDS011;64036;48.266;14.192;2023-05-10T01:48:40;5.80;;;3.50;;
75456;SDS011;64036;48.266;14.192;2023-05-10T01:51:14;6.70;;;3.70;;
75456;SDS011;64036;48.266;14.192;2023-05-10T01:53:46;6.00;;;4.00;;
75456;SDS011;64036;48.266;14.192;2023-05-10T01:56:14;5.10;;;3.30;;
75456;SDS011;64036;48.266;14.192;2023-05-10T01:58:46;6.80;;;3.60;;
75456;SDS011;64036;48.266;14.192;2023-05-10T02:01:13;5.10;;;3.30;;
75456;SDS011;64036;48.266;14.192;2023-05-10T02:03:41;5.60;;;3.30;;
75456;SDS011;64036;48.266;14.192;2023-05-10T02:06:09;5.70;;;3.50;;
75456;SDS011;64036;48.266;14.192;2023-05-10T02:08:36;5.60;;;3.50;;
75456;SDS011;64036;48.266;14.192;2023-05-10T02:11:03;5.70;;;2.70;;
75456;SDS011;64036;48.266;14.192;2023-05-10T02:13:31;5.60;;;3.60;;
75456;SDS011;64036;48.266;14.192;2023-05-10T02:15:59;7.10;;;3.60;;
75456;SDS011;64036;48.266;14.192;2023-05-10T02:18:26;7.80;;;3.40;;
75456;SDS011;64036;48.266;14.192;2023-05-10T02:20:56;6.10;;;3.60;;
75456;SDS011;64036;48.266;14.192;2023-05-10T02:23:23;7.00;;;3.40;;
75456;SDS011;64036;48.266;14.192;2023-05-10T02:25:51;6.20;;;3.50;;
75456;SDS011;64036;48.266;14.192;2023-05-10T02:28:19;5.10;;;3.30;;
75456;SDS011;64036;48.266;14.192;2023-05-10T02:30:47;8.00;;;3.00;;
75456;SDS011;64036;48.266;14.192;2023-05-10T02:33:13;4.80;;;3.20;;
75456;SDS011;64036;48.266;14.192;2023-05-10T02:35:40;5.30;;;3.30;;
75456;SDS011;64036;48.266;14.192;2023-05-10T02:38:07;4.80;;;3.10;;
75456;SDS011;64036;48.266;14.192;2023-05-10T02:40:34;5.10;;;3.10;;
75456;SDS011;64036;48.266;14.192;2023-05-10T02:43:01;7.20;;;3.30;;
75456;SDS011;64036;48.266;14.192;2023-05-10T02:45:30;4.90;;;3.00;;
75456;SDS011;64036;48.266;14.192;2023-05-10T02:47:56;5.60;;;3.00;;
75456;SDS011;64036;48.266;14.192;2023-05-10T02:50:23;5.30;;;3.10;;
75456;SDS011;64036;48.266;14.192;2023-05-10T02:52:54;5.30;;;3.40;;
75456;SDS011;64036;48.266;14.192;2023-05-10T02:55:26;4.70;;;2.70;;
75456;SDS011;64036;48.266;14.192;2023-05-10T02:58:00;7.00;;;3.20;;
75456;SDS011;64036;48.266;14.192;2023-05-10T03:00:27;5.00;;;3.10;;
75456;SDS011;64036;48.266;14.192;2023-05-10T03:02:53;4.90;;;2.90;;
75456;SDS011;64036;48.266;14.192;2023-05-10T03:05:19;5.00;;;3.10;;
75456;SDS011;64036;48.266;14.192;2023-05-10T03:07:45;5.30;;;3.00;;
75456;SDS011;64036;48.266;14.192;2023-05-10T03:10:27;4.80;;;3.00;;
75456;SDS011;64036;48.266;14.192;2023-05-10T03:13:11;5.00;;;3.30;;
75456;SDS011;64036;48.266;14.192;2023-05-10T03:15:55;5.80;;;3.40;;
75456;SDS011;64036;48.266;14.192;2023-05-10T03:21:35;4.80;;;3.10;;
75456;SDS011;64036;48.266;14.192;2023-05-10T03:24:18;5.20;;;3.20;;
75456;SDS011;64036;48.266;14.192;2023-05-10T03:26:46;5.50;;;3.60;;
75456;SDS011;64036;48.266;14.192;2023-05-10T03:31:44;5.20;;;3.30;;
75456;SDS011;64036;48.266;14.192;2023-05-10T03:34:15;5.20;;;3.40;;
75456;SDS011;64036;48.266;14.192;2023-05-10T03:36:42;5.00;;;3.50;;
75456;SDS011;64036;48.266;14.192;2023-05-10T03:39:10;4.70;;;3.00;;
75456;SDS011;64036;48.266;14.192;2023-05-10T03:41:36;6.80;;;3.00;;
75456;SDS011;64036;48.266;14.192;2023-05-10T03:44:02;6.00;;;3.50;;
75456;SDS011;64036;48.266;14.192;2023-05-10T03:46:28;5.30;;;3.50;;
75456;SDS011;64036;48.266;14.192;2023-05-10T03:48:54;5.50;;;3.20;;
75456;SDS011;64036;48.266;14.192;2023-05-10T03:51:25;5.20;;;3.40;;
75456;SDS011;64036;48.266;14.192;2023-05-10T03:53:54;5.90;;;3.20;;
75456;SDS011;64036;48.266;14.192;2023-05-10T03:56:20;5.70;;;3.30;;
75456;SDS011;64036;48.266;14.192;2023-05-10T03:58:49;6.70;;;3.30;;
75456;SDS011;64036;48.266;14.192;2023-05-10T04:01:14;5.40;;;3.30;;
75456;SDS011;64036;48.266;14.192;2023-05-10T04:03:40;6.70;;;2.90;;
75456;SDS011;64036;48.266;14.192;2023-05-10T04:06:06;5.40;;;3.00;;
75456;SDS011;64036;48.266;14.192;2023-05-10T04:08:34;5.70;;;3.30;;
75456;SDS011;64036;48.266;14.192;2023-05-10T04:11:18;4.80;;;2.90;;
75456;SDS011;64036;48.266;14.192;2023-05-10T04:13:43;4.90;;;3.10;;
75456;SDS011;64036;48.266;14.192;2023-05-10T04:16:09;5.60;;;3.40;;
75456;SDS011;64036;48.266;14.192;2023-05-10T04:18:37;6.10;;;3.30;;
75456;SDS011;64036;48.266;14.192;2023-05-10T04:21:16;5.80;;;3.70;;
75456;SDS011;64036;48.266;14.192;2023-05-10T04:23:41;6.10;;;3.50;;
75456;SDS011;64036;48.266;14.192;2023-05-10T04:26:07;6.40;;;4.10;;
75456;SDS011;64036;48.266;14.192;2023-05-10T04:28:39;5.40;;;3.30;;
75456;SDS011;64036;48.266;14.192;2023-05-10T04:31:06;5.90;;;3.30;;
75456;SDS011;64036;48.266;14.192;2023-05-10T04:33:33;5.80;;;3.50;;
75456;SDS011;64036;48.266;14.192;2023-05-10T04:35:59;5.30;;;3.30;;
75456;SDS011;64036;48.266;14.192;2023-05-10T04:38:26;5.50;;;3.50;;
75456;SDS011;64036;48.266;14.192;2023-05-10T04:40:52;6.30;;;3.60;;
75456;SDS011;64036;48.266;14.192;2023-05-10T04:43:18;5.20;;;3.20;;
75456;SDS011;64036;48.266;14.192;2023-05-10T04:45:44;7.50;;;4.10;;
75456;SDS011;64036;48.266;14.192;2023-05-10T04:48:10;5.80;;;3.40;;
75456;SDS011;64036;48.266;14.192;2023-05-10T04:50:36;4.40;;;2.90;;
75456;SDS011;64036;48.266;14.192;2023-05-10T04:53:02;6.70;;;3.50;;
75456;SDS011;64036;48.266;14.192;2023-05-10T04:55:27;5.90;;;3.50;;
75456;SDS011;64036;48.266;14.192;2023-05-10T04:57:53;5.50;;;3.50;;
75456;SDS011;64036;48.266;14.192;2023-05-10T05:00:22;5.60;;;3.40;;
75456;SDS011;64036;48.266;14.192;2023-05-10T05:02:48;5.90;;;3.50;;
75456;SDS011;64036;48.266;14.192;2023-05-10T05:05:13;5.00;;;3.30;;
75456;SDS011;64036;48.266;14.192;2023-05-10T05:07:39;5.00;;;3.30;;
75456;SDS011;64036;48.266;14.192;2023-05-10T05:10:06;5.20;;;3.20;;
75456;SDS011;64036;48.266;14.192;2023-05-10T05:12:32;5.60;;;3.60;;
75456;SDS011;64036;48.266;14.192;2023-05-10T05:14:58;5.40;;;3.20;;
75456;SDS011;64036;48.266;14.192;2023-05-10T05:17:24;5.70;;;3.60;;
75456;SDS011;64036;48.266;14.192;2023-05-10T05:19:50;7.90;;;3.80;;
75456;SDS011;64036;48.266;14.192;2023-05-10T05:22:16;6.70;;;3.80;;
75456;SDS011;64036;48.266;14.192;2023-05-10T05:24:41;6.50;;;3.80;;
75456;SDS011;64036;48.266;14.192;2023-05-10T05:27:07;6.10;;;3.80;;
75456;SDS011;64036;48.266;14.192;2023-05-10T05:29:33;5.50;;;3.50;;
75456;SDS011;64036;48.266;14.192;2023-05-10T05:31:59;5.50;;;3.50;;
75456;SDS011;64036;48.266;14.192;2023-05-10T05:34:25;7.10;;;3.60;;
75456;SDS011;64036;48.266;14.192;2023-05-10T05:36:51;6.30;;;4.10;;
75456;SDS011;64036;48.266;14.192;2023-05-10T05:39:16;7.80;;;3.50;;
75456;SDS011;64036;48.266;14.192;2023-05-10T05:41:42;6.20;;;3.70;;
75456;SDS011;64036;48.266;14.192;2023-05-10T05:44:08;7.10;;;3.90;;
75456;SDS011;64036;48.266;14.192;2023-05-10T05:46:34;6.00;;;3.90;;
75456;SDS011;64036;48.266;14.192;2023-05-10T05:49:00;7.40;;;4.10;;
75456;SDS011;64036;48.266;14.192;2023-05-10T05:51:28;7.00;;;4.30;;
75456;SDS011;64036;48.266;14.192;2023-05-10T05:53:54;7.40;;;4.00;;
75456;SDS011;64036;48.266;14.192;2023-05-10T05:56:19;9.50;;;4.50;;
75456;SDS011;64036;48.266;14.192;2023-05-10T05:58:52;7.60;;;4.40;;
75456;SDS011;64036;48.266;14.192;2023-05-10T06:01:18;7.80;;;4.30;;
75456;SDS011;64036;48.266;14.192;2023-05-10T06:03:43;8.10;;;4.10;;
75456;SDS011;64036;48.266;14.192;2023-05-10T06:06:09;7.50;;;4.30;;
75456;SDS011;64036;48.266;14.192;2023-05-10T06:08:35;8.20;;;4.50;;
75456;SDS011;64036;48.266;14.192;2023-05-10T06:11:01;7.70;;;4.40;;
75456;SDS011;64036;48.266;14.192;2023-05-10T06:13:26;9.50;;;5.30;;
75456;SDS011;64036;48.266;14.192;2023-05-10T06:15:58;9.60;;;5.00;;
75456;SDS011;64036;48.266;14.192;2023-05-10T06:18:24;9.00;;;4.20;;
75456;SDS011;64036;48.266;14.192;2023-05-10T06:20:49;9.10;;;5.00;;
75456;SDS011;64036;48.266;14.192;2023-05-10T06:23:15;7.40;;;4.40;;
75456;SDS011;64036;48.266;14.192;2023-05-10T06:25:41;7.80;;;4.90;;
75456;SDS011;64036;48.266;14.192;2023-05-10T06:28:07;7.80;;;4.90;;
75456;SDS011;64036;48.266;14.192;2023-05-10T06:30:32;8.90;;;4.50;;
75456;SDS011;64036;48.266;14.192;2023-05-10T06:32:58;6.70;;;4.00;;
75456;SDS011;64036;48.266;14.192;2023-05-10T06:35:24;7.50;;;4.70;;
75456;SDS011;64036;48.266;14.192;2023-05-10T06:37:50;8.00;;;4.60;;
75456;SDS011;64036;48.266;14.192;2023-05-10T06:40:17;8.30;;;4.50;;
75456;SDS011;64036;48.266;14.192;2023-05-10T06:42:43;7.00;;;4.40;;
75456;SDS011;64036;48.266;14.192;2023-05-10T06:45:10;7.90;;;4.30;;
75456;SDS011;64036;48.266;14.192;2023-05-10T06:47:36;7.00;;;4.40;;
75456;SDS011;64036;48.266;14.192;2023-05-10T06:50:01;5.90;;;4.10;;
75456;SDS011;64036;48.266;14.192;2023-05-10T06:52:28;7.60;;;4.70;;
75456;SDS011;64036;48.266;14.192;2023-05-10T06:54:54;9.30;;;4.10;;
75456;SDS011;64036;48.266;14.192;2023-05-10T06:57:19;7.90;;;4.90;;
75456;SDS011;64036;48.266;14.192;2023-05-10T06:59:45;8.20;;;5.10;;
75456;SDS011;64036;48.266;14.192;2023-05-10T07:02:11;9.20;;;5.10;;
75456;SDS011;64036;48.266;14.192;2023-05-10T07:04:37;7.40;;;4.70;;
75456;SDS011;64036;48.266;14.192;2023-05-10T07:07:02;7.80;;;5.10;;
75456;SDS011;64036;48.266;14.192;2023-05-10T07:09:28;8.40;;;5.40;;
75456;SDS011;64036;48.266;14.192;2023-05-10T07:11:55;9.20;;;5.00;;
75456;SDS011;64036;48.266;14.192;2023-05-10T07:14:22;7.80;;;4.80;;
75456;SDS011;64036;48.266;14.192;2023-05-10T07:16:48;8.50;;;5.20;;
75456;SDS011;64036;48.266;14.192;2023-05-10T07:19:13;9.10;;;5.30;;
75456;SDS011;64036;48.266;14.192;2023-05-10T07:21:39;8.70;;;5.30;;
75456;SDS011;64036;48.266;14.192;2023-05-10T07:24:07;8.70;;;5.20;;
75456;SDS011;64036;48.266;14.192;2023-05-10T07:26:33;9.10;;;5.60;;
75456;SDS011;64036;48.266;14.192;2023-05-10T07:28:59;10.30;;;5.90;;
75456;SDS011;64036;48.266;14.192;2023-05-10T07:31:24;8.60;;;5.00;;
75456;SDS011;64036;48.266;14.192;2023-05-10T07:33:50;7.70;;;4.80;;
75456;SDS011;64036;48.266;14.192;2023-05-10T07:36:15;7.60;;;5.00;;
75456;SDS011;64036;48.266;14.192;2023-05-10T07:38:41;7.40;;;4.80;;
75456;SDS011;64036;48.266;14.192;2023-05-10T07:41:06;9.20;;;4.60;;
75456;SDS011;64036;48.266;14.192;2023-05-10T07:43:38;9.20;;;5.30;;
75456;SDS011;64036;48.266;14.192;2023-05-10T07:46:15;10.10;;;5.50;;
75456;SDS011;64036;48.266;14.192;2023-05-10T07:51:29;8.70;;;5.50;;
75456;SDS011;64036;48.266;14.192;2023-05-10T07:54:04;7.80;;;5.10;;
75456;SDS011;64036;48.266;14.192;2023-05-10T07:56:31;9.00;;;5.20;;
75456;SDS011;64036;48.266;14.192;2023-05-10T07:59:03;8.00;;;5.40;;
75456;SDS011;64036;48.266;14.192;2023-05-10T08:01:31;7.50;;;5.10;;
75456;SDS011;64036;48.266;14.192;2023-05-10T08:03:59;8.60;;;5.20;;
75456;SDS011;64036;48.266;14.192;2023-05-10T08:06:25;8.00;;;4.50;;
75456;SDS011;64036;48.266;14.192;2023-05-10T08:08:52;7.30;;;4.20;;
75456;SDS011;64036;48.266;14.192;2023-05-10T08:11:22;7.50;;;4.50;;
75456;SDS011;64036;48.266;14.192;2023-05-10T08:16:43;9.00;;;5.20;;
75456;SDS011;64036;48.266;14.192;2023-05-10T08:19:08;9.50;;;5.00;;
75456;SDS011;64036;48.266;14.192;2023-05-10T08:21:34;10.90;;;5.30;;
75456;SDS011;64036;48.266;14.192;2023-05-10T08:24:00;8.30;;;4.90;;
75456;SDS011;64036;48.266;14.192;2023-05-10T08:26:26;9.70;;;5.40;;
75456;SDS011;64036;48.266;14.192;2023-05-10T08:28:52;11.50;;;5.80;;
75456;SDS011;64036;48.266;14.192;2023-05-10T08:31:18;10.30;;;5.60;;
75456;SDS011;64036;48.266;14.192;2023-05-10T08:33:43;10.20;;;6.50;;
75456;SDS011;64036;48.266;14.192;2023-05-10T08:36:09;9.60;;;5.80;;
75456;SDS011;64036;48.266;14.192;2023-05-10T08:38:35;12.20;;;7.00;;
75456;SDS011;64036;48.266;14.192;2023-05-10T08:41:04;11.90;;;7.00;;
75456;SDS011;64036;48.266;14.192;2023-05-10T08:43:31;13.50;;;6.50;;
75456;SDS011;64036;48.266;14.192;2023-05-10T08:46:00;9.80;;;6.30;;
75456;SDS011;64036;48.266;14.192;2023-05-10T08:48:29;8.60;;;6.10;;
75456;SDS011;64036;48.266;14.192;2023-05-10T08:50:58;10.80;;;6.20;;
75456;SDS011;64036;48.266;14.192;2023-05-10T08:53:27;14.10;;;7.50;;
75456;SDS011;64036;48.266;14.192;2023-05-10T08:55:55;9.90;;;6.00;;
75456;SDS011;64036;48.266;14.192;2023-05-10T08:58:21;10.20;;;6.20;;
75456;SDS011;64036;48.266;14.192;2023-05-10T09:00:48;10.40;;;6.90;;
75456;SDS011;64036;48.266;14.192;2023-05-10T09:03:16;9.10;;;6.80;;
75456;SDS011;64036;48.266;14.192;2023-05-10T09:05:42;14.80;;;6.90;;
75456;SDS011;64036;48.266;14.192;2023-05-10T09:08:08;10.40;;;6.10;;
75456;SDS011;64036;48.266;14.192;2023-05-10T09:10:34;8.40;;;5.60;;
75456;SDS011;64036;48.266;14.192;2023-05-10T09:13:00;7.70;;;5.70;;
75456;SDS011;64036;48.266;14.192;2023-05-10T09:15:26;7.10;;;4.90;;
75456;SDS011;64036;48.266;14.192;2023-05-10T09:17:52;7.20;;;5.00;;
75456;SDS011;64036;48.266;14.192;2023-05-10T09:20:18;6.90;;;4.90;;
75456;SDS011;64036;48.266;14.192;2023-05-10T09:22:44;6.80;;;5.00;;
75456;SDS011;64036;48.266;14.192;2023-05-10T09:25:15;7.90;;;5.50;;
75456;SDS011;64036;48.266;14.192;2023-05-10T09:27:44;6.90;;;4.60;;
75456;SDS011;64036;48.266;14.192;2023-05-10T09:30:15;7.50;;;4.90;;
75456;SDS011;64036;48.266;14.192;2023-05-10T09:32:45;7.70;;;5.00;;
75456;SDS011;64036;48.266;14.192;2023-05-10T09:35:17;7.50;;;5.00;;
75456;SDS011;64036;48.266;14.192;2023-05-10T09:37:46;7.70;;;5.50;;
75456;SDS011;64036;48.266;14.192;2023-05-10T09:40:18;9.00;;;5.70;;
75456;SDS011;64036;48.266;14.192;2023-05-10T09:42:53;7.40;;;4.90;;
75456;SDS011;64036;48.266;14.192;2023-05-10T09:45:24;10.00;;;5.50;;
75456;SDS011;64036;48.266;14.192;2023-05-10T09:47:51;8.00;;;5.80;;
75456;SDS011;64036;48.266;14.192;2023-05-10T09:50:16;10.20;;;6.50;;
75456;SDS011;64036;48.266;14.192;2023-05-10T09:55:17;11.10;;;7.60;;
75456;SDS011;64036;48.266;14.192;2023-05-10T09:57:45;15.30;;;9.20;;
75456;SDS011;64036;48.266;14.192;2023-05-10T10:00:19;12.20;;;8.70;;
75456;SDS011;64036;48.266;14.192;2023-05-10T10:02:55;16.70;;;12.70;;
75456;SDS011;64036;48.266;14.192;2023-05-10T10:05:33;16.90;;;13.00;;
75456;SDS011;64036;48.266;14.192;2023-05-10T10:08:02;17.70;;;12.50;;
75456;SDS011;64036;48.266;14.192;2023-05-10T10:10:32;19.00;;;13.30;;
75456;SDS011;64036;48.266;14.192;2023-05-10T10:12:58;17.60;;;12.60;;
75456;SDS011;64036;48.266;14.192;2023-05-10T10:15:25;20.40;;;14.40;;
75456;SDS011;64036;48.266;14.192;2023-05-10T10:17:51;20.10;;;14.00;;
75456;SDS011;64036;48.266;14.192;2023-05-10T10:20:19;22.10;;;16.90;;
75456;SDS011;64036;48.266;14.192;2023-05-10T10:22:46;20.30;;;14.90;;
75456;SDS011;64036;48.266;14.192;2023-05-10T10:25:17;22.10;;;15.30;;
75456;SDS011;64036;48.266;14.192;2023-05-10T10:30:42;18.20;;;14.00;;
75456;SDS011;64036;48.266;14.192;2023-05-10T10:33:36;20.30;;;15.10;;
75456;SDS011;64036;48.266;14.192;2023-05-10T10:36:15;21.60;;;14.70;;
75456;SDS011;64036;48.266;14.192;2023-05-10T11:00:32;20.40;;;15.30;;
75456;SDS011;64036;48.266;14.192;2023-05-10T11:03:05;19.20;;;14.70;;
75456;SDS011;64036;48.266;14.192;2023-05-10T11:07:59;20.30;;;15.10;;
75456;SDS011;64036;48.266;14.192;2023-05-10T11:10:26;18.80;;;14.90;;
75456;SDS011;64036;48.266;14.192;2023-05-10T11:13:03;16.40;;;11.70;;
75456;SDS011;64036;48.266;14.192;2023-05-10T11:15:40;15.10;;;11.50;;
75456;SDS011;64036;48.266;14.192;2023-05-10T11:18:20;13.00;;;10.90;;
75456;SDS011;64036;48.266;14.192;2023-05-10T11:21:00;16.60;;;12.40;;
75456;SDS011;64036;48.266;14.192;2023-05-10T11:26:00;18.40;;;13.50;;
75456;SDS011;64036;48.266;14.192;2023-05-10T11:28:27;19.40;;;16.50;;
75456;SDS011;64036;48.266;14.192;2023-05-10T11:30:54;19.10;;;15.70;;
75456;SDS011;64036;48.266;14.192;2023-05-10T11:33:19;18.10;;;14.20;;
75456;SDS011;64036;48.266;14.192;2023-05-10T11:35:46;21.90;;;17.10;;
75456;SDS011;64036;48.266;14.192;2023-05-10T11:38:13;17.20;;;14.00;;
75456;SDS011;64036;48.266;14.192;2023-05-10T11:40:39;19.90;;;16.30;;
75456;SDS011;64036;48.266;14.192;2023-05-10T11:43:06;19.60;;;15.60;;
75456;SDS011;64036;48.266;14.192;2023-05-10T11:45:32;22.00;;;16.80;;
75456;SDS011;64036;48.266;14.192;2023-05-10T11:47:59;18.60;;;13.90;;
75456;SDS011;64036;48.266;14.192;2023-05-10T11:50:25;14.10;;;10.90;;
75456;SDS011;64036;48.266;14.192;2023-05-10T11:52:55;12.40;;;10.50;;
75456;SDS011;64036;48.266;14.192;2023-05-10T11:55:22;11.60;;;9.90;;
75456;SDS011;64036;48.266;14.192;2023-05-10T11:57:53;13.80;;;10.80;;
75456;SDS011;64036;48.266;14.192;2023-05-10T12:00:20;9.70;;;8.40;;
75456;SDS011;64036;48.266;14.192;2023-05-10T12:02:47;6.70;;;5.20;;
75456;SDS011;64036;48.266;14.192;2023-05-10T12:05:13;6.70;;;5.20;;
75456;SDS011;64036;48.266;14.192;2023-05-10T12:07:38;10.00;;;7.50;;
75456;SDS011;64036;48.266;14.192;2023-05-10T12:10:12;7.20;;;5.80;;
75456;SDS011;64036;48.266;14.192;2023-05-10T12:12:44;7.20;;;6.00;;
75456;SDS011;64036;48.266;14.192;2023-05-10T12:15:17;7.40;;;5.20;;
75456;SDS011;64036;48.266;14.192;2023-05-10T12:17:47;7.50;;;5.80;;
75456;SDS011;64036;48.266;14.192;2023-05-10T12:20:19;7.70;;;5.70;;
75456;SDS011;64036;48.266;14.192;2023-05-10T12:22:51;8.10;;;6.10;;
75456;SDS011;64036;48.266;14.192;2023-05-10T12:25:23;10.60;;;6.80;;
75456;SDS011;64036;48.266;14.192;2023-05-10T12:27:54;7.00;;;5.10;;
75456;SDS011;64036;48.266;14.192;2023-05-10T12:30:28;7.20;;;5.30;;
75456;SDS011;64036;48.266;14.192;2023-05-10T12:33:15;7.40;;;5.90;;
75456;SDS011;64036;48.266;14.192;2023-05-10T12:35:47;8.00;;;5.70;;
75456;SDS011;64036;48.266;14.192;2023-05-10T12:38:33;8.40;;;6.80;;
75456;SDS011;64036;48.266;14.192;2023-05-10T12:41:01;9.30;;;6.20;;
75456;SDS011;64036;48.266;14.192;2023-05-10T12:43:29;8.10;;;5.80;;
75456;SDS011;64036;48.266;14.192;2023-05-10T12:45:55;11.70;;;6.80;;
75456;SDS011;64036;48.266;14.192;2023-05-10T12:48:21;9.40;;;6.50;;
75456;SDS011;64036;48.266;14.192;2023-05-10T12:50:47;8.40;;;6.20;;
75456;SDS011;64036;48.266;14.192;2023-05-10T12:53:14;9.00;;;6.30;;
75456;SDS011;64036;48.266;14.192;2023-05-10T12:55:43;7.60;;;4.80;;
75456;SDS011;64036;48.266;14.192;2023-05-10T12:58:09;8.00;;;5.30;;
75456;SDS011;64036;48.266;14.192;2023-05-10T13:00:35;8.40;;;6.20;;
75456;SDS011;64036;48.266;14.192;2023-05-10T13:03:04;8.60;;;6.60;;
75456;SDS011;64036;48.266;14.192;2023-05-10T13:05:34;9.20;;;7.30;;
75456;SDS011;64036;48.266;14.192;2023-05-10T13:08:00;9.30;;;6.90;;
75456;SDS011;64036;48.266;14.192;2023-05-10T13:10:26;8.80;;;5.70;;
75456;SDS011;64036;48.266;14.192;2023-05-10T13:12:53;8.30;;;6.70;;
75456;SDS011;64036;48.266;14.192;2023-05-10T13:15:18;9.00;;;6.20;;
75456;SDS011;64036;48.266;14.192;2023-05-10T13:17:44;9.60;;;7.00;;
75456;SDS011;64036;48.266;14.192;2023-05-10T13:20:10;9.00;;;6.10;;
75456;SDS011;64036;48.266;14.192;2023-05-10T13:22:36;9.80;;;6.40;;
75456;SDS011;64036;48.266;14.192;2023-05-10T13:25:02;8.40;;;6.00;;
75456;SDS011;64036;48.266;14.192;2023-05-10T13:27:28;7.10;;;5.10;;
75456;SDS011;64036;48.266;14.192;2023-05-10T13:29:54;7.60;;;5.50;;
75456;SDS011;64036;48.266;14.192;2023-05-10T13:32:20;7.10;;;5.50;;
75456;SDS011;64036;48.266;14.192;2023-05-10T13:34:46;9.40;;;6.20;;
75456;SDS011;64036;48.266;14.192;2023-05-10T13:37:12;7.60;;;5.90;;
75456;SDS011;64036;48.266;14.192;2023-05-10T13:39:37;7.60;;;5.20;;
75456;SDS011;64036;48.266;14.192;2023-05-10T13:42:04;7.20;;;5.40;;
75456;SDS011;64036;48.266;14.192;2023-05-10T13:44:30;6.10;;;5.00;;
75456;SDS011;64036;48.266;14.192;2023-05-10T13:46:56;8.60;;;5.20;;
75456;SDS011;64036;48.266;14.192;2023-05-10T13:49:22;8.10;;;5.10;;
75456;SDS011;64036;48.266;14.192;2023-05-10T13:51:47;7.30;;;5.00;;
75456;SDS011;64036;48.266;14.192;2023-05-10T13:54:13;7.30;;;5.80;;
75456;SDS011;64036;48.266;14.192;2023-05-10T13:56:40;7.10;;;5.60;;
75456;SDS011;64036;48.266;14.192;2023-05-10T13:59:07;6.40;;;4.70;;
75456;SDS011;64036;48.266;14.192;2023-05-10T14:01:33;7.70;;;6.10;;
75456;SDS011;64036;48.266;14.192;2023-05-10T14:03:59;8.20;;;5.60;;
75456;SDS011;64036;48.266;14.192;2023-05-10T14:06:25;6.70;;;5.40;;
75456;SDS011;64036;48.266;14.192;2023-05-10T14:08:52;8.40;;;5.60;;
75456;SDS011;64036;48.266;14.192;2023-05-10T14:11:19;7.30;;;5.60;;
75456;SDS011;64036;48.266;14.192;2023-05-10T14:13:45;8.30;;;6.50;;
75456;SDS011;64036;48.266;14.192;2023-05-10T14:16:10;13.40;;;6.50;;
75456;SDS011;64036;48.266;14.192;2023-05-10T14:18:37;7.60;;;5.70;;
75456;SDS011;64036;48.266;14.192;2023-05-10T14:21:03;7.30;;;5.60;;
75456;SDS011;64036;48.266;14.192;2023-05-10T14:23:29;6.00;;;5.30;;
75456;SDS011;64036;48.266;14.192;2023-05-10T14:25:55;6.70;;;5.50;;
75456;SDS011;64036;48.266;14.192;2023-05-10T14:28:21;6.70;;;5.50;;
75456;SDS011;64036;48.266;14.192;2023-05-10T14:30:48;6.70;;;5.40;;
75456;SDS011;64036;48.266;14.192;2023-05-10T14:33:13;7.00;;;5.00;;
75456;SDS011;64036;48.266;14.192;2023-05-10T14:35:39;7.90;;;5.20;;
75456;SDS011;64036;48.266;14.192;2023-05-10T14:38:05;6.90;;;5.30;;
75456;SDS011;64036;48.266;14.192;2023-05-10T14:40:31;7.10;;;5.50;;
75456;SDS011;64036;48.266;14.192;2023-05-10T14:42:57;7.10;;;6.00;;
75456;SDS011;64036;48.266;14.192;2023-05-10T14:45:23;7.80;;;5.20;;
75456;SDS011;64036;48.266;14.192;2023-05-10T14:47:49;6.20;;;4.70;;
75456;SDS011;64036;48.266;14.192;2023-05-10T14:50:15;7.70;;;4.70;;
75456;SDS011;64036;48.266;14.192;2023-05-10T14:52:42;7.40;;;5.30;;
75456;SDS011;64036;48.266;14.192;2023-05-10T14:55:08;7.90;;;5.00;;
75456;SDS011;64036;48.266;14.192;2023-05-10T14:57:34;5.00;;;3.20;;
75456;SDS011;64036;48.266;14.192;2023-05-10T14:59:59;5.60;;;4.40;;
75456;SDS011;64036;48.266;14.192;2023-05-10T15:02:25;6.60;;;4.30;;
75456;SDS011;64036;48.266;14.192;2023-05-10T15:04:51;5.10;;;3.70;;
75456;SDS011;64036;48.266;14.192;2023-05-10T15:07:16;5.90;;;4.80;;
75456;SDS011;64036;48.266;14.192;2023-05-10T15:09:44;4.90;;;3.20;;
75456;SDS011;64036;48.266;14.192;2023-05-10T15:12:10;6.80;;;4.30;;
75456;SDS011;64036;48.266;14.192;2023-05-10T15:14:36;6.20;;;4.50;;
75456;SDS011;64036;48.266;14.192;2023-05-10T15:17:02;5.40;;;4.00;;
75456;SDS011;64036;48.266;14.192;2023-05-10T15:19:28;4.90;;;3.40;;
75456;SDS011;64036;48.266;14.192;2023-05-10T15:21:55;4.90;;;3.60;;
75456;SDS011;64036;48.266;14.192;2023-05-10T15:24:21;4.60;;;3.30;;
75456;SDS011;64036;48.266;14.192;2023-05-10T15:26:47;4.40;;;3.30;;
75456;SDS011;64036;48.266;14.192;2023-05-10T15:29:13;4.50;;;3.00;;
75456;SDS011;64036;48.266;14.192;2023-05-10T15:31:48;4.10;;;2.80;;